Time;durP1;ratioP1;P1;durP2;ratioP2;P2;SDS_P1;SDS_P2;PMS_P1;PMS_P2;Temp;Humidity;BMP_temperature;BMP_pressure;BME280_temperature;BME280_humidity;BME280_pressure;Samples;Min_cycle;Max_cycle;Signal;HPM_P1;HPM_P2
2022/12/12 00:02:25;;;;;;;22.30;9.18;;;;;;;-5.81;100.00;94648.34;5016751;28;20045;-69
2022/12/12 00:04:50;;;;;;;19.23;9.10;;;;;;;-5.83;100.00;94644.41;5021094;28;20041;-68
2022/12/12 00:07:16;;;;;;;21.58;8.10;;;;;;;-5.76;100.00;94650.34;5019804;28;20458;-68
2022/12/12 00:09:41;;;;;;;26.80;10.15;;;;;;;-5.80;100.00;94646.59;5017348;28;20491;-69
2022/12/12 00:12:07;;;;;;;25.23;9.57;;;;;;;-5.78;100.00;94653.09;5029869;28;20053;-68
2022/12/12 00:14:33;;;;;;;19.55;8.02;;;;;;;-5.72;100.00;94640.53;5017618;28;20419;-69
2022/12/12 00:16:59;;;;;;;24.55;8.40;;;;;;;-5.62;100.00;94656.34;5024677;28;20041;-68
2022/12/12 00:19:25;;;;;;;24.90;9.65;;;;;;;-5.74;100.00;94648.41;5022922;28;20495;-69
2022/12/12 00:21:50;;;;;;;26.30;8.63;;;;;;;-5.77;100.00;94659.81;5021898;28;20550;-68
2022/12/12 00:24:16;;;;;;;24.13;8.68;;;;;;;-5.76;100.00;94656.28;5023358;28;20730;-65
2022/12/12 00:26:41;;;;;;;25.08;8.63;;;;;;;-5.72;100.00;94663.59;5021291;28;20046;-69
2022/12/12 00:29:07;;;;;;;24.85;9.98;;;;;;;-5.55;100.00;94661.53;5019947;28;20050;-69
2022/12/12 00:31:33;;;;;;;25.00;9.52;;;;;;;-5.62;100.00;94662.25;5025790;28;20042;-69
2022/12/12 00:33:59;;;;;;;23.20;9.02;;;;;;;-5.63;100.00;94659.88;5024104;28;20116;-69
2022/12/12 00:36:27;;;;;;;25.85;10.57;;;;;;;-5.67;100.00;94663.84;5024165;28;20049;-70
2022/12/12 00:38:54;;;;;;;22.48;9.35;;;;;;;-5.68;100.00;94662.25;5021913;28;20053;-69
2022/12/12 00:41:20;;;;;;;26.63;9.93;;;;;;;-5.63;100.00;94660.69;5026511;28;20037;-68
2022/12/12 00:43:46;;;;;;;31.23;10.00;;;;;;;-5.66;100.00;94661.06;5015689;28;20046;-70
2022/12/12 00:46:14;;;;;;;21.75;9.45;;;;;;;-5.76;100.00;94666.53;5017912;28;20053;-69
2022/12/12 00:48:40;;;;;;;23.38;9.70;;;;;;;-5.80;100.00;94665.31;5018042;28;20045;-70
2022/12/12 00:51:15;;;;;;;23.30;8.90;;;;;;;-5.76;100.00;94661.41;5025676;28;20033;-70
2022/12/12 00:53:40;;;;;;;26.15;8.95;;;;;;;-5.80;100.00;94670.44;5017459;28;20049;-69
2022/12/12 00:56:06;;;;;;;25.77;8.77;;;;;;;-5.75;100.00;94667.31;5020209;28;20115;-69
2022/12/12 00:58:32;;;;;;;24.08;9.77;;;;;;;-5.87;100.00;94664.50;5026589;28;20132;-68
2022/12/12 01:01:05;;;;;;;21.05;8.55;;;;;;;-5.86;100.00;94666.09;5020817;28;20063;-69
2022/12/12 01:03:32;;;;;;;23.75;8.88;;;;;;;-5.89;100.00;94661.31;5021959;28;20357;-69
2022/12/12 01:05:58;;;;;;;27.52;10.18;;;;;;;-5.92;100.00;94671.94;5021396;28;20076;-69
2022/12/12 01:08:24;;;;;;;29.23;9.85;;;;;;;-5.95;100.00;94668.00;5025912;28;20060;-69
2022/12/12 01:10:49;;;;;;;22.23;10.32;;;;;;;-5.81;100.00;94679.13;5024424;28;20427;-69
2022/12/12 01:13:15;;;;;;;22.27;8.65;;;;;;;-5.77;100.00;94675.19;5020440;28;20045;-70
2022/12/12 01:15:40;;;;;;;27.65;10.48;;;;;;;-5.77;100.00;94675.19;5020203;28;20045;-68
2022/12/12 01:18:06;;;;;;;22.20;9.30;;;;;;;-5.69;100.00;94681.16;5024355;28;20038;-70
2022/12/12 01:20:31;;;;;;;25.10;9.07;;;;;;;-5.74;100.00;94685.06;5021653;28;20041;-70
2022/12/12 01:22:57;;;;;;;29.80;9.32;;;;;;;-5.79;100.00;94689.97;5020075;28;20065;-70
2022/12/12 01:25:22;;;;;;;28.15;9.32;;;;;;;-5.84;100.00;94689.75;5024962;28;20071;-70
2022/12/12 01:27:48;;;;;;;22.27;9.02;;;;;;;-5.72;100.00;94686.66;5018878;28;20088;-70
2022/12/12 01:30:17;;;;;;;29.13;9.90;;;;;;;-5.65;100.00;94684.94;5017218;28;20041;-70
2022/12/12 01:32:43;;;;;;;34.70;11.15;;;;;;;-5.74;100.00;94685.06;5023446;28;20061;-70
2022/12/12 01:35:09;;;;;;;26.67;10.25;;;;;;;-5.65;100.00;94682.38;5020730;28;20054;-70
2022/12/12 01:37:36;;;;;;;28.75;10.52;;;;;;;-5.70;100.00;94684.69;5012346;28;20044;-70
2022/12/12 01:40:04;;;;;;;32.10;10.90;;;;;;;-5.60;100.00;94680.03;5025914;28;20738;-70
2022/12/12 01:42:30;;;;;;;41.92;11.85;;;;;;;-5.62;100.00;94682.75;5011358;28;20068;-70
2022/12/12 01:44:56;;;;;;;36.72;11.07;;;;;;;-5.58;100.00;94683.19;5022802;28;20483;-70
2022/12/12 01:47:23;;;;;;;27.88;10.05;;;;;;;-5.54;100.00;94686.97;5020248;28;20551;-70
2022/12/12 01:49:50;;;;;;;29.60;10.20;;;;;;;-5.55;100.00;94677.69;5017981;28;20045;-70
2022/12/12 01:52:28;;;;;;;29.77;10.68;;;;;;;-5.54;100.00;94684.41;5026321;28;20050;-70
2022/12/12 01:54:57;;;;;;;19.95;8.52;;;;;;;-5.44;100.00;94684.84;5026159;28;20794;-69
2022/12/12 01:57:34;;;;;;;38.95;13.00;;;;;;;-5.50;100.00;94684.81;5021618;28;20555;-69
2022/12/12 02:00:03;;;;;;;28.40;10.95;;;;;;;-5.53;100.00;94686.00;5023502;28;20041;-70
2022/12/12 02:02:29;;;;;;;25.38;9.75;;;;;;;-5.56;100.00;94696.59;5022712;28;20104;-70
2022/12/12 02:04:55;;;;;;;28.15;10.18;;;;;;;-5.60;100.00;94695.41;5022426;28;20041;-69
2022/12/12 02:07:21;;;;;;;33.35;10.85;;;;;;;-5.64;100.00;94694.22;5017967;28;20052;-70
2022/12/12 02:09:48;;;;;;;33.97;12.15;;;;;;;-5.75;100.00;94693.75;5023147;28;20033;-70
2022/12/12 02:12:14;;;;;;;29.42;11.75;;;;;;;-5.81;100.00;94693.72;5021363;28;20049;-70
2022/12/12 02:14:44;;;;;;;25.20;9.68;;;;;;;-5.74;100.00;94695.31;5020126;28;20041;-69
2022/12/12 02:17:25;;;;;;;29.20;9.40;;;;;;;-5.82;100.00;94692.94;5016911;28;20042;-69
2022/12/12 02:20:27;;;;;;;28.15;11.02;;;;;;;-5.96;100.00;94696.34;5022977;28;20069;-70
2022/12/12 02:23:07;;;;;;;29.55;10.55;;;;;;;-6.02;100.00;94697.13;5016978;28;20034;-69
2022/12/12 02:25:47;;;;;;;24.33;9.75;;;;;;;-6.07;100.00;94699.47;5023275;28;20123;-70
2022/12/12 02:28:13;;;;;;;24.20;10.30;;;;;;;-6.11;100.00;94699.81;5016670;28;20046;-70
2022/12/12 02:30:44;;;;;;;24.77;9.95;;;;;;;-6.12;100.00;94703.38;5022798;28;20068;-70
2022/12/12 02:33:18;;;;;;;21.58;8.48;;;;;;;-6.12;100.00;94705.13;5021330;28;20046;-69
2022/12/12 02:35:51;;;;;;;31.85;11.27;;;;;;;-6.27;100.00;94700.09;5025172;28;20069;-69
2022/12/12 02:38:17;;;;;;;29.73;10.27;;;;;;;-6.31;100.00;94709.13;5017706;28;20461;-69
2022/12/12 02:41:05;;;;;;;32.05;11.65;;;;;;;-6.39;100.00;94701.56;5018185;28;20075;-69
2022/12/12 02:43:39;;;;;;;26.33;10.52;;;;;;;-6.34;100.00;94710.28;5024910;28;20053;-69
2022/12/12 02:46:18;;;;;;;24.30;8.82;;;;;;;-6.39;100.00;94706.66;5024366;28;20495;-69
2022/12/12 02:49:05;;;;;;;27.42;8.95;;;;;;;-6.37;100.00;94709.84;5020168;28;20056;-69
2022/12/12 02:51:33;;;;;;;21.38;9.38;;;;;;;-6.40;100.00;94710.22;5027224;28;20065;-68
2022/12/12 02:53:59;;;;;;;33.08;11.52;;;;;;;-6.41;100.00;94718.88;5020087;28;20593;-69
2022/12/12 02:56:46;;;;;;;32.20;10.85;;;;;;;-6.40;100.00;94710.22;5021309;28;20461;-70
2022/12/12 02:59:19;;;;;;;35.47;10.80;;;;;;;-6.48;100.00;94703.44;5017096;28;20048;-69
2022/12/12 03:01:52;;;;;;;28.58;7.65;;;;;;;-6.50;100.00;94706.19;5027437;28;20120;-68
2022/12/12 03:07:46;;;;;;;25.23;10.23;;;;;;;-6.57;100.00;94705.34;5028527;28;20061;-70
2022/12/12 03:10:31;;;;;;;24.02;8.77;;;;;;;-6.48;100.00;94713.69;5021547;28;20053;-69
2022/12/12 03:13:18;;;;;;;18.80;8.77;;;;;;;-6.52;100.00;94712.47;5017577;28;20076;-69
2022/12/12 03:15:55;;;;;;;37.90;10.95;;;;;;;-6.59;100.00;94707.28;5020865;28;20049;-68
2022/12/12 03:18:37;;;;;;;32.03;11.63;;;;;;;-6.60;100.00;94715.94;5028491;28;20407;-69
2022/12/12 03:21:14;;;;;;;41.70;11.18;;;;;;;-6.56;100.00;94722.28;5021051;28;20667;-69
2022/12/12 03:23:45;;;;;;;37.45;12.25;;;;;;;-6.62;100.00;94717.91;5028738;28;20037;-69
2022/12/12 03:26:16;;;;;;;38.40;11.80;;;;;;;-6.68;100.00;94719.41;5023380;28;20045;-69
2022/12/12 03:28:48;;;;;;;23.20;9.05;;;;;;;-6.62;100.00;94712.78;5024633;28;20039;-69
2022/12/12 03:31:17;;;;;;;30.80;11.68;;;;;;;-6.63;100.00;94713.75;5023785;28;20056;-69
2022/12/12 03:33:45;;;;;;;29.80;10.93;;;;;;;-6.72;100.00;94712.25;5028200;28;20049;-69
2022/12/12 03:36:17;;;;;;;35.03;10.98;;;;;;;-6.75;100.00;94708.31;5028317;28;20049;-68
2022/12/12 03:38:55;;;;;;;38.17;12.40;;;;;;;-6.84;100.00;94715.31;5027785;28;20053;-69
2022/12/12 03:41:24;;;;;;;29.98;10.20;;;;;;;-6.92;100.00;94712.88;5024449;28;20037;-69
2022/12/12 03:44:00;;;;;;;30.88;10.02;;;;;;;-6.90;100.00;94716.03;5018122;28;20042;-69
2022/12/12 03:46:32;;;;;;;21.02;9.93;;;;;;;-6.83;100.00;94721.22;5025011;28;20042;-68
2022/12/12 03:49:23;;;;;;;35.58;10.82;;;;;;;-6.89;100.00;94717.63;5016163;28;20038;-69
2022/12/12 03:52:05;;;;;;;29.30;10.98;;;;;;;-6.86;100.00;94719.81;5020992;28;20491;-69
2022/12/12 03:54:44;;;;;;;36.53;9.75;;;;;;;-6.89;100.00;94722.72;5028241;28;20124;-69
2022/12/12 03:57:25;;;;;;;28.42;10.93;;;;;;;-7.00;100.00;94712.97;5023036;28;20053;-69
2022/12/12 03:59:58;;;;;;;37.28;11.82;;;;;;;-6.89;100.00;94722.72;5019234;28;20803;-68
2022/12/12 04:02:33;;;;;;;33.58;10.65;;;;;;;-7.02;100.00;94715.69;5015238;28;20677;-68
2022/12/12 04:05:22;;;;;;;35.53;12.82;;;;;;;-7.13;100.00;94716.94;5016445;28;20046;-69
2022/12/12 04:08:04;;;;;;;33.40;12.63;;;;;;;-7.03;100.00;94721.00;5022320;28;20092;-69
2022/12/12 04:13:37;;;;;;;35.63;11.27;;;;;;;-7.26;100.00;94723.69;5019724;28;20042;-69
2022/12/12 04:16:14;;;;;;;34.47;10.82;;;;;;;-7.26;100.00;94723.69;5014867;28;20579;-69
2022/12/12 04:18:51;;;;;;;34.58;11.07;;;;;;;-7.29;100.00;94717.16;5021952;28;20060;-69
2022/12/12 04:24:12;;;;;;;38.67;12.40;;;;;;;-7.31;100.00;94724.22;5014991;28;20053;-69
2022/12/12 04:26:45;;;;;;;38.22;12.70;;;;;;;-7.40;100.00;94730.38;5016221;28;20034;-69
2022/12/12 04:29:27;;;;;;;24.17;8.48;;;;;;;-7.40;100.00;94735.47;5025313;28;20056;-69
2022/12/12 04:31:55;;;;;;;38.42;12.50;;;;;;;-7.43;100.00;94735.84;5023440;28;20033;-69
2022/12/12 04:34:37;;;;;;;38.65;11.45;;;;;;;-7.50;100.00;94746.78;5024372;28;20419;-69
2022/12/12 04:37:06;;;;;;;32.88;11.50;;;;;;;-7.53;100.00;94736.91;5017714;28;20134;-69
2022/12/12 04:39:35;;;;;;;32.55;11.02;;;;;;;-7.53;100.00;94736.91;5027590;28;20800;-69
2022/12/12 04:42:05;;;;;;;32.95;10.80;;;;;;;-7.54;100.00;94740.44;5021863;28;20418;-69
2022/12/12 04:44:34;;;;;;;35.92;12.68;;;;;;;-7.52;100.00;94746.13;5028323;28;20050;-69
2022/12/12 04:47:01;;;;;;;34.80;11.25;;;;;;;-7.44;100.00;94754.69;5023449;28;20037;-69
2022/12/12 04:49:30;;;;;;;38.78;12.00;;;;;;;-7.40;100.00;94748.25;5012422;28;20450;-69
2022/12/12 04:52:04;;;;;;;33.78;11.82;;;;;;;-7.43;100.00;94753.72;5019950;28;20499;-69
2022/12/12 04:54:45;;;;;;;28.90;12.00;;;;;;;-7.41;100.00;94751.78;5027329;28;20060;-69
2022/12/12 04:57:17;;;;;;;46.30;12.15;;;;;;;-7.39;100.00;94757.53;5015962;28;20129;-70
2022/12/12 04:59:44;;;;;;;27.10;10.10;;;;;;;-7.36;100.00;94757.94;5018663;28;20105;-68
2022/12/12 05:02:29;;;;;;;32.47;10.65;;;;;;;-7.27;100.00;94760.44;5028316;28;20045;-69
2022/12/12 05:05:03;;;;;;;35.75;12.93;;;;;;;-7.27;100.00;94761.22;5019967;28;20046;-69
2022/12/12 05:07:43;;;;;;;37.20;11.90;;;;;;;-7.21;100.00;94760.53;5024495;28;20434;-68
2022/12/12 05:10:13;;;;;;;34.40;12.65;;;;;;;-7.25;100.00;94759.28;5023968;28;20302;-69
2022/12/12 05:12:48;;;;;;;36.13;11.35;;;;;;;-7.24;100.00;94766.00;5023025;28;20459;-68
2022/12/12 05:15:16;;;;;;;32.88;11.88;;;;;;;-7.22;100.00;94756.38;5020669;28;20092;-69
2022/12/12 05:17:44;;;;;;;32.50;11.30;;;;;;;-7.26;100.00;94767.91;5021718;28;20072;-70
2022/12/12 05:20:10;;;;;;;30.77;11.30;;;;;;;-7.23;100.00;94772.69;5025589;28;20414;-69
2022/12/12 05:22:35;;;;;;;40.72;12.15;;;;;;;-7.30;100.00;94776.91;5023956;28;20042;-69
2022/12/12 05:25:02;;;;;;;37.20;11.70;;;;;;;-7.35;100.00;94780.00;5026936;28;20048;-70
2022/12/12 05:27:27;;;;;;;30.77;9.63;;;;;;;-7.34;100.00;94775.66;5019425;28;20049;-69
2022/12/12 05:29:53;;;;;;;33.55;11.65;;;;;;;-7.24;100.00;94771.13;5021875;28;20111;-68
2022/12/12 05:32:18;;;;;;;31.88;10.32;;;;;;;-7.32;100.00;94773.75;5020230;28;20041;-69
2022/12/12 05:34:44;;;;;;;30.67;11.25;;;;;;;-7.39;100.00;94783.88;5019889;28;20049;-69
2022/12/12 05:37:10;;;;;;;36.00;11.68;;;;;;;-7.52;100.00;94784.47;5019114;28;20049;-69
2022/12/12 05:39:35;;;;;;;17.63;8.13;;;;;;;-7.41;100.00;94790.94;5016250;28;20037;-69
2022/12/12 05:42:01;;;;;;;17.90;7.70;;;;;;;-7.41;100.00;94779.91;5022864;28;20419;-69
2022/12/12 05:44:26;;;;;;;27.50;10.10;;;;;;;-7.39;100.00;94788.19;5026018;28;20758;-69
2022/12/12 05:46:52;;;;;;;18.73;8.93;;;;;;;-7.46;100.00;94797.53;5013060;28;20038;-69
2022/12/12 05:49:17;;;;;;;24.50;9.02;;;;;;;-7.50;100.00;94797.88;5018668;28;20045;-69
2022/12/12 05:51:43;;;;;;;29.65;10.75;;;;;;;-7.40;100.00;94791.72;5024984;28;20046;-69
2022/12/12 05:54:09;;;;;;;18.88;8.65;;;;;;;-7.33;100.00;94802.81;5025829;28;20499;-68
2022/12/12 05:56:35;;;;;;;26.98;9.18;;;;;;;-7.28;100.00;94795.44;5018588;28;20048;-69
2022/12/12 05:59:00;;;;;;;20.33;7.93;;;;;;;-7.28;100.00;94800.56;5019274;28;20044;-69
2022/12/12 06:01:26;;;;;;;21.90;9.23;;;;;;;-7.32;100.00;94799.31;5020953;28;20408;-69
2022/12/12 06:03:52;;;;;;;23.38;9.05;;;;;;;-7.29;100.00;94804.06;5024295;28;20278;-69
2022/12/12 06:06:17;;;;;;;21.48;8.23;;;;;;;-7.25;100.00;94805.31;5018868;28;20042;-69
2022/12/12 06:08:43;;;;;;;20.98;7.97;;;;;;;-7.24;100.00;94806.09;5026070;28;20068;-69
2022/12/12 06:11:08;;;;;;;19.17;7.95;;;;;;;-7.16;100.00;94806.81;5019850;28;20050;-69
2022/12/12 06:13:35;;;;;;;22.73;9.93;;;;;;;-7.13;100.00;94806.44;5014213;28;20045;-69
2022/12/12 06:16:09;;;;;;;22.65;9.02;;;;;;;-6.98;100.00;94810.78;5017895;28;20573;-69
2022/12/12 06:18:35;;;;;;;23.80;9.95;;;;;;;-7.02;100.00;94805.22;5016946;28;20057;-69
2022/12/12 06:21:02;;;;;;;21.02;8.50;;;;;;;-7.06;100.00;94813.44;5022172;28;20045;-68
2022/12/12 06:23:28;;;;;;;21.80;8.20;;;;;;;-7.04;100.00;94807.16;5022479;28;20046;-68
2022/12/12 06:25:53;;;;;;;24.60;8.65;;;;;;;-6.98;100.00;94810.78;5028338;28;20052;-69
2022/12/12 06:28:19;;;;;;;20.30;8.68;;;;;;;-6.94;100.00;94806.88;5023761;28;20038;-69
2022/12/12 06:30:44;;;;;;;28.38;9.00;;;;;;;-6.92;100.00;94815.19;5017178;28;20045;-70
2022/12/12 06:33:10;;;;;;;25.08;9.93;;;;;;;-6.97;100.00;94807.25;5016284;28;20083;-69
2022/12/12 06:35:35;;;;;;;22.60;9.43;;;;;;;-7.06;100.00;94808.31;5014746;28;20067;-69
2022/12/12 06:38:01;;;;;;;25.10;8.75;;;;;;;-7.02;100.00;94814.66;5016524;28;20037;-69
2022/12/12 06:40:27;;;;;;;28.88;9.70;;;;;;;-7.03;100.00;94818.19;5027175;28;20106;-69
2022/12/12 06:42:52;;;;;;;22.30;8.73;;;;;;;-7.02;100.00;94817.22;5021680;28;20605;-68
2022/12/12 06:45:18;;;;;;;19.15;8.00;;;;;;;-6.95;100.00;94820.66;5017697;28;20136;-70
2022/12/12 06:47:43;;;;;;;21.48;8.48;;;;;;;-7.05;100.00;94812.44;5018811;28;20320;-68
2022/12/12 06:50:09;;;;;;;29.25;10.18;;;;;;;-7.04;100.00;94816.59;5025602;28;20042;-68
2022/12/12 06:52:35;;;;;;;20.92;9.35;;;;;;;-7.05;100.00;94817.56;5019467;28;20054;-68
2022/12/12 06:55:00;;;;;;;25.73;9.50;;;;;;;-7.03;100.00;94828.41;5020509;28;20435;-69
2022/12/12 06:57:26;;;;;;;25.02;8.85;;;;;;;-7.03;100.00;94823.31;5022790;28;20037;-68
2022/12/12 06:59:51;;;;;;;18.48;8.02;;;;;;;-7.07;100.00;94822.84;5021847;28;20120;-67
2022/12/12 07:02:17;;;;;;;17.42;8.02;;;;;;;-7.11;100.00;94820.81;5018405;28;20487;-69
2022/12/12 07:04:43;;;;;;;21.13;8.45;;;;;;;-6.99;100.00;94834.78;5016295;28;20048;-71
2022/12/12 07:07:08;;;;;;;20.92;8.27;;;;;;;-7.02;100.00;94841.03;5024235;28;20120;-69
2022/12/12 07:09:34;;;;;;;20.50;7.95;;;;;;;-7.09;100.00;94840.16;5024148;28;20140;-70
2022/12/12 07:11:59;;;;;;;22.42;8.48;;;;;;;-7.08;100.00;94835.81;5020847;28;20573;-69
2022/12/12 07:14:25;;;;;;;16.63;6.78;;;;;;;-6.90;100.00;94833.69;5017465;28;20068;-72
2022/12/12 07:16:50;;;;;;;16.15;7.20;;;;;;;-6.91;100.00;94847.47;5014741;28;20072;-70
2022/12/12 07:19:16;;;;;;;20.70;7.30;;;;;;;-6.95;100.00;94838.56;5023677;28;20045;-70
2022/12/12 07:21:41;;;;;;;14.45;5.35;;;;;;;-7.04;100.00;94834.50;5019566;28;20038;-68
2022/12/12 07:24:07;;;;;;;14.30;6.13;;;;;;;-7.07;100.00;94834.84;5019528;28;20049;-69
2022/12/12 07:26:32;;;;;;;16.92;7.57;;;;;;;-7.10;100.00;94837.75;5014654;28;20045;-71
2022/12/12 07:28:58;;;;;;;18.98;6.07;;;;;;;-7.08;100.00;94833.25;5026223;28;20158;-69
2022/12/12 07:31:25;;;;;;;13.25;6.90;;;;;;;-7.09;100.00;94835.03;5024600;28;20056;-68
2022/12/12 07:33:51;;;;;;;16.20;6.05;;;;;;;-7.15;100.00;94841.63;5025838;28;20038;-69
2022/12/12 07:36:17;;;;;;;21.75;7.38;;;;;;;-7.15;100.00;94851.88;5025425;28;20045;-68
2022/12/12 07:38:43;;;;;;;12.60;6.25;;;;;;;-7.15;100.00;94851.88;5019099;28;20116;-69
2022/12/12 07:41:12;;;;;;;19.30;7.65;;;;;;;-7.20;100.00;94849.03;5022973;28;20557;-68
2022/12/12 07:43:39;;;;;;;19.15;7.70;;;;;;;-7.25;100.00;94861.56;5020013;28;20042;-70
2022/12/12 07:46:06;;;;;;;18.25;7.88;;;;;;;-7.11;100.00;94866.84;5016103;28;20673;-68
2022/12/12 07:48:32;;;;;;;18.08;7.53;;;;;;;-7.33;100.00;94864.19;5019539;28;20041;-69
2022/12/12 07:50:59;;;;;;;21.52;7.47;;;;;;;-7.31;100.00;94862.25;5021959;28;20463;-69
2022/12/12 07:53:24;;;;;;;14.73;7.65;;;;;;;-7.31;100.00;94864.81;5025512;28;20041;-70
2022/12/12 07:55:50;;;;;;;19.95;7.63;;;;;;;-7.26;100.00;94869.41;5012338;28;20046;-70
2022/12/12 07:58:15;;;;;;;18.17;7.03;;;;;;;-7.28;100.00;94872.13;5024545;28;20053;-69
2022/12/12 08:00:41;;;;;;;20.10;6.38;;;;;;;-7.26;100.00;94870.19;5030132;28;20049;-69
2022/12/12 08:03:07;;;;;;;27.23;6.70;;;;;;;-7.27;100.00;94873.72;5028216;28;20057;-69
2022/12/12 08:05:32;;;;;;;15.63;5.70;;;;;;;-7.23;100.00;94880.06;5027328;28;20526;-69
2022/12/12 08:07:58;;;;;;;15.80;6.35;;;;;;;-7.20;100.00;94879.72;5025608;28;20818;-69
2022/12/12 08:10:23;;;;;;;17.65;6.75;;;;;;;-7.16;100.00;94883.50;5027846;28;20041;-69
2022/12/12 08:12:49;;;;;;;8.48;4.35;;;;;;;-7.15;100.00;94880.00;5019288;28;20108;-70
2022/12/12 08:15:16;;;;;;;10.90;5.90;;;;;;;-7.18;100.00;94880.34;5024296;28;20045;-70
2022/12/12 08:17:42;;;;;;;16.77;6.53;;;;;;;-7.11;100.00;94882.19;5024403;28;20499;-71
2022/12/12 08:20:08;;;;;;;14.18;6.35;;;;;;;-7.09;100.00;94880.28;5025784;28;20129;-70
2022/12/12 08:22:34;;;;;;;14.32;5.82;;;;;;;-7.15;100.00;94885.13;5024820;28;20050;-70
2022/12/12 08:25:00;;;;;;;14.70;5.40;;;;;;;-7.19;100.00;94881.31;5030493;28;20038;-70
2022/12/12 08:27:26;;;;;;;16.20;5.72;;;;;;;-7.06;100.00;94890.16;5019413;28;20107;-70
2022/12/12 08:29:52;;;;;;;14.77;5.25;;;;;;;-7.01;100.00;94892.97;5020032;28;20510;-69
2022/12/12 08:32:18;;;;;;;10.70;4.50;;;;;;;-6.90;100.00;94894.31;5015690;28;20038;-71
2022/12/12 08:34:43;;;;;;;16.20;5.13;;;;;;;-6.83;100.00;94895.97;5030370;28;20054;-70
2022/12/12 08:37:09;;;;;;;14.23;5.97;;;;;;;-6.84;100.00;94899.53;5017938;28;20046;-70
2022/12/12 08:39:35;;;;;;;14.80;5.93;;;;;;;-6.85;100.00;94903.06;5013066;28;20554;-70
2022/12/12 08:42:01;;;;;;;11.68;5.55;;;;;;;-6.79;100.00;94907.47;5026412;28;20042;-70
2022/12/12 08:44:27;;;;;;;12.23;5.95;;;;;;;-6.75;100.00;94902.78;5026445;28;20115;-71
2022/12/12 08:46:53;;;;;;;15.10;5.55;;;;;;;-6.76;100.00;94901.19;5017789;28;20123;-70
2022/12/12 08:49:18;;;;;;;13.13;4.90;;;;;;;-6.75;100.00;94904.53;5021878;28;20053;-71
2022/12/12 08:51:44;;;;;;;10.55;4.55;;;;;;;-6.76;100.00;94905.53;5029605;28;20041;-69
2022/12/12 08:54:11;;;;;;;11.30;5.13;;;;;;;-6.80;100.00;94908.41;5027375;28;20499;-69
2022/12/12 08:56:37;;;;;;;11.98;4.85;;;;;;;-6.73;100.00;94910.28;5028409;28;20499;-70
2022/12/12 08:59:03;;;;;;;17.85;6.25;;;;;;;-6.60;100.00;94905.34;5031106;28;20049;-72
2022/12/12 09:01:29;;;;;;;14.70;5.43;;;;;;;-6.51;100.00;94914.50;5024758;28;20045;-71
2022/12/12 09:03:56;;;;;;;9.45;4.70;;;;;;;-6.31;100.00;94921.66;5022228;28;20363;-72
2022/12/12 09:06:23;;;;;;;8.07;4.25;;;;;;;-6.16;100.00;94917.31;5021437;28;20041;-72
2022/12/12 09:08:49;;;;;;;11.57;4.75;;;;;;;-6.18;100.00;94913.34;5024514;28;20041;-70
2022/12/12 09:11:15;;;;;;;14.65;5.07;;;;;;;-6.04;100.00;94914.28;5024332;28;20067;-70
2022/12/12 09:13:41;;;;;;;11.02;5.20;;;;;;;-5.99;100.00;94911.97;5022062;28;20044;-71
2022/12/12 09:16:08;;;;;;;15.07;6.00;;;;;;;-5.87;100.00;94913.06;5025336;28;20451;-68
2022/12/12 09:18:34;;;;;;;10.95;5.20;;;;;;;-5.83;100.00;94916.84;5016631;28;20065;-69
2022/12/12 09:21:00;;;;;;;15.10;5.65;;;;;;;-5.62;100.00;94917.84;5027549;28;20431;-68
2022/12/12 09:23:27;;;;;;;12.20;5.88;;;;;;;-5.47;100.00;94910.88;5026353;28;20090;-68
2022/12/12 09:25:53;;;;;;;15.18;5.70;;;;;;;-5.33;100.00;94916.91;5016756;28;20048;-69
2022/12/12 09:28:21;;;;;;;21.23;7.00;;;;;;;-5.68;100.00;94923.69;5028971;28;20041;-68
2022/12/12 09:30:48;;;;;;;13.68;5.93;;;;;;;-5.40;100.00;94921.19;5028121;28;20037;-68
2022/12/12 09:33:15;;;;;;;12.52;5.22;;;;;;;-5.29;100.00;94928.38;5024123;28;20044;-67
2022/12/12 09:35:41;;;;;;;13.05;5.18;;;;;;;-4.95;100.00;94926.09;5019875;28;20038;-68
2022/12/12 09:38:07;;;;;;;13.75;5.93;;;;;;;-4.68;100.00;94923.69;5021591;28;20042;-69
2022/12/12 09:40:52;;;;;;;14.68;6.25;;;;;;;-3.43;100.00;94920.97;5021753;28;20045;-68
2022/12/12 09:43:21;;;;;;;14.30;5.25;;;;;;;-2.49;100.00;94926.91;5024217;28;20053;-70
2022/12/12 09:45:47;;;;;;;22.40;6.75;;;;;;;-1.59;100.00;94921.78;5012062;28;20046;-69
2022/12/12 09:48:26;;;;;;;13.57;5.70;;;;;;;-1.55;100.00;94922.16;5010399;28;20077;-71
2022/12/12 09:50:52;;;;;;;10.45;4.50;;;;;;;-1.90;100.00;94919.16;5026201;28;20538;-69
2022/12/12 09:53:20;;;;;;;19.77;6.32;;;;;;;-1.94;100.00;94909.28;5025581;28;20037;-68
2022/12/12 09:55:53;;;;;;;18.27;6.57;;;;;;;-1.95;100.00;94915.41;5022579;28;20037;-68
2022/12/12 09:58:25;;;;;;;13.80;6.28;;;;;;;-0.79;100.00;94909.28;5017811;28;20057;-69
2022/12/12 10:01:03;;;;;;;14.48;5.75;;;;;;;-0.05;100.00;94914.50;5021528;28;20418;-69
2022/12/12 10:04:02;;;;;;;18.70;6.55;;;;;;;-0.06;100.00;94907.75;5022459;28;20033;-68
2022/12/12 10:06:38;;;;;;;18.45;6.88;;;;;;;-0.90;100.00;94914.16;5041884;28;20495;-68
2022/12/12 10:09:28;;;;;;;20.75;7.80;;;;;;;-0.77;100.00;94907.31;5016256;28;20179;-68
2022/12/12 10:11:55;;;;;;;17.17;6.53;;;;;;;-1.29;100.00;94910.88;5013984;28;20520;-67
2022/12/12 10:14:38;;;;;;;16.33;7.40;;;;;;;-0.94;100.00;94913.00;5026160;28;20037;-69
2022/12/12 10:17:10;;;;;;;22.67;7.60;;;;;;;-0.72;100.00;94910.03;5024020;28;20061;-68
2022/12/12 10:19:47;;;;;;;19.70;7.03;;;;;;;-0.02;100.00;94908.91;5014958;28;20128;-69
2022/12/12 10:22:24;;;;;;;24.60;8.40;;;;;;;-0.94;100.00;94902.66;5026530;28;20061;-68
2022/12/12 10:25:10;;;;;;;25.50;7.97;;;;;;;-0.33;100.00;94902.91;5028922;28;20041;-70
2022/12/12 10:27:36;;;;;;;22.40;8.05;;;;;;;-0.36;100.00;94913.66;5025349;28;20046;-76
2022/12/12 10:30:14;;;;;;;20.48;7.32;;;;;;;-0.34;100.00;94911.66;5025340;28;20429;-69
2022/12/12 10:32:58;;;;;;;19.27;7.28;;;;;;;-0.16;100.00;94902.31;5033720;28;20069;-67
2022/12/12 10:35:56;;;;;;;21.83;7.75;;;;;;;-0.37;100.00;94902.53;5016599;28;20514;-68
2022/12/12 10:38:43;;;;;;;23.55;8.23;;;;;;;-0.99;100.00;94894.78;4982817;28;20065;-68
2022/12/12 10:41:31;;;;;;;21.33;6.55;;;;;;;-0.82;100.00;94894.22;5025136;28;20054;-68
2022/12/12 10:44:04;;;;;;;35.95;8.40;;;;;;;-1.02;100.00;94897.78;5018246;28;20140;-67
2022/12/12 10:46:53;;;;;;;26.42;8.27;;;;;;;-0.07;100.00;94895.81;5012940;28;20046;-67
2022/12/12 10:49:22;;;;;;;26.98;8.15;;;;;;;0.19;100.00;94888.75;5013435;28;20562;-69
2022/12/12 10:51:50;;;;;;;22.75;8.13;;;;;;;0.21;99.31;94886.75;5022244;28;20053;-69
2022/12/12 10:54:19;;;;;;;21.75;8.07;;;;;;;0.29;96.69;94899.38;5021854;28;20050;-69
2022/12/12 10:57:11;;;;;;;42.60;11.13;;;;;;;0.79;98.98;94888.72;5020968;28;20041;-70
2022/12/12 10:59:45;;;;;;;16.45;6.65;;;;;;;0.99;88.35;94896.19;5028500;28;20037;-70
2022/12/12 11:02:38;;;;;;;20.27;6.32;;;;;;;0.57;96.00;94900.59;5029006;28;20052;-70
2022/12/12 11:05:03;;;;;;;17.25;7.68;;;;;;;0.30;93.90;94891.41;5024290;28;20053;-69
2022/12/12 11:07:30;;;;;;;27.80;7.65;;;;;;;1.10;94.25;94889.41;5027876;28;20049;-71
2022/12/12 11:09:57;;;;;;;30.58;9.85;;;;;;;-0.19;100.00;94899.16;5017879;28;20038;-71
2022/12/12 11:12:32;;;;;;;25.33;7.72;;;;;;;0.69;97.34;94893.66;5052716;28;20057;-68
2022/12/12 11:15:11;;;;;;;17.95;6.97;;;;;;;-0.19;97.79;94894.00;5044046;28;20033;-69
2022/12/12 11:17:38;;;;;;;23.95;7.43;;;;;;;0.32;95.50;94888.59;5050947;28;20026;-69
2022/12/12 11:20:08;;;;;;;23.42;8.15;;;;;;;0.78;93.03;94887.13;5058119;28;20040;-70
2022/12/12 11:22:38;;;;;;;19.60;7.57;;;;;;;0.39;96.39;94884.09;5059310;28;20036;-69
2022/12/12 11:25:04;;;;;;;23.40;7.75;;;;;;;0.13;100.00;94880.88;5053731;28;20033;-70
2022/12/12 11:27:36;;;;;;;17.20;6.80;;;;;;;0.33;100.00;94890.16;5054571;28;20029;-69
2022/12/12 11:30:07;;;;;;;19.13;6.97;;;;;;;0.36;100.00;94883.75;5056816;28;20033;-69
2022/12/12 11:32:45;;;;;;;21.73;7.40;;;;;;;0.43;100.00;94882.66;5040847;28;20037;-72
2022/12/12 11:35:21;;;;;;;17.42;6.85;;;;;;;-0.03;97.80;94889.22;5023012;28;20068;-71
2022/12/12 11:37:50;;;;;;;19.02;7.30;;;;;;;1.14;91.32;94877.59;5030762;28;20053;-71
2022/12/12 11:40:23;;;;;;;18.90;7.18;;;;;;;0.33;95.96;94884.97;5026884;28;20088;-72